sensor_id;sensor_type;location;lat;lon;timestamp;P1;durP1;ratioP1;P2;durP2;ratioP2
68256;SDS011;55069;51.568;4.656;2022-12-29T00:01:51;2.53;;;1.60;;
68256;SDS011;55069;51.568;4.656;2022-12-29T00:04:17;5.67;;;1.70;;
68256;SDS011;55069;51.568;4.656;2022-12-29T00:06:43;2.72;;;1.60;;
68256;SDS011;55069;51.568;4.656;2022-12-29T00:09:13;2.40;;;1.30;;
68256;SDS011;55069;51.568;4.656;2022-12-29T00:11:40;6.93;;;1.42;;
68256;SDS011;55069;51.568;4.656;2022-12-29T00:14:05;2.90;;;1.07;;
68256;SDS011;55069;51.568;4.656;2022-12-29T00:16:51;2.03;;;1.20;;
68256;SDS011;55069;51.568;4.656;2022-12-29T00:19:17;2.47;;;0.90;;
68256;SDS011;55069;51.568;4.656;2022-12-29T00:22:01;3.25;;;1.00;;
68256;SDS011;55069;51.568;4.656;2022-12-29T00:24:45;3.00;;;0.80;;
68256;SDS011;55069;51.568;4.656;2022-12-29T00:27:29;2.28;;;1.25;;
68256;SDS011;55069;51.568;4.656;2022-12-29T00:30:15;1.50;;;0.70;;
68256;SDS011;55069;51.568;4.656;2022-12-29T00:33:08;2.38;;;0.80;;
68256;SDS011;55069;51.568;4.656;2022-12-29T00:35:57;1.95;;;0.95;;
68256;SDS011;55069;51.568;4.656;2022-12-29T00:38:37;1.60;;;0.75;;
68256;SDS011;55069;51.568;4.656;2022-12-29T00:41:24;1.67;;;0.70;;
68256;SDS011;55069;51.568;4.656;2022-12-29T00:44:09;1.83;;;1.07;;
68256;SDS011;55069;51.568;4.656;2022-12-29T00:46:36;4.05;;;1.02;;
68256;SDS011;55069;51.568;4.656;2022-12-29T00:49:03;1.55;;;1.10;;
68256;SDS011;55069;51.568;4.656;2022-12-29T00:51:47;2.35;;;1.00;;
68256;SDS011;55069;51.568;4.656;2022-12-29T00:54:13;3.23;;;1.20;;
68256;SDS011;55069;51.568;4.656;2022-12-29T00:56:39;2.30;;;1.00;;
68256;SDS011;55069;51.568;4.656;2022-12-29T00:59:05;1.83;;;1.10;;
68256;SDS011;55069;51.568;4.656;2022-12-29T01:01:35;3.85;;;1.30;;
68256;SDS011;55069;51.568;4.656;2022-12-29T01:04:02;2.65;;;0.98;;
68256;SDS011;55069;51.568;4.656;2022-12-29T01:06:28;1.92;;;1.20;;
68256;SDS011;55069;51.568;4.656;2022-12-29T01:08:53;2.40;;;1.20;;
68256;SDS011;55069;51.568;4.656;2022-12-29T01:11:38;2.15;;;1.27;;
68256;SDS011;55069;51.568;4.656;2022-12-29T01:14:05;1.55;;;1.05;;
68256;SDS011;55069;51.568;4.656;2022-12-29T01:16:31;2.75;;;1.00;;
68256;SDS011;55069;51.568;4.656;2022-12-29T01:18:56;2.93;;;1.20;;
68256;SDS011;55069;51.568;4.656;2022-12-29T01:21:23;2.65;;;0.90;;
68256;SDS011;55069;51.568;4.656;2022-12-29T01:23:49;3.30;;;1.20;;
68256;SDS011;55069;51.568;4.656;2022-12-29T01:26:16;2.80;;;1.57;;
68256;SDS011;55069;51.568;4.656;2022-12-29T01:28:42;7.32;;;0.93;;
68256;SDS011;55069;51.568;4.656;2022-12-29T01:31:09;2.93;;;1.20;;
68256;SDS011;55069;51.568;4.656;2022-12-29T01:33:35;3.78;;;1.15;;
68256;SDS011;55069;51.568;4.656;2022-12-29T01:36:01;3.87;;;1.10;;
68256;SDS011;55069;51.568;4.656;2022-12-29T01:38:28;2.40;;;0.93;;
68256;SDS011;55069;51.568;4.656;2022-12-29T01:40:53;2.33;;;0.87;;
68256;SDS011;55069;51.568;4.656;2022-12-29T01:43:19;1.75;;;1.00;;
68256;SDS011;55069;51.568;4.656;2022-12-29T01:45:48;4.87;;;1.20;;
68256;SDS011;55069;51.568;4.656;2022-12-29T01:48:16;2.47;;;1.30;;
68256;SDS011;55069;51.568;4.656;2022-12-29T01:50:50;2.10;;;1.23;;
68256;SDS011;55069;51.568;4.656;2022-12-29T01:53:18;5.35;;;1.20;;
68256;SDS011;55069;51.568;4.656;2022-12-29T01:55:52;2.07;;;1.07;;
68256;SDS011;55069;51.568;4.656;2022-12-29T01:58:22;3.83;;;1.30;;
68256;SDS011;55069;51.568;4.656;2022-12-29T02:00:52;3.47;;;1.30;;
68256;SDS011;55069;51.568;4.656;2022-12-29T02:03:18;1.90;;;1.10;;
68256;SDS011;55069;51.568;4.656;2022-12-29T02:05:54;6.63;;;1.42;;
68256;SDS011;55069;51.568;4.656;2022-12-29T02:08:41;3.65;;;1.48;;
68256;SDS011;55069;51.568;4.656;2022-12-29T02:11:10;6.65;;;1.33;;
68256;SDS011;55069;51.568;4.656;2022-12-29T02:13:36;4.47;;;1.10;;
68256;SDS011;55069;51.568;4.656;2022-12-29T02:27:36;3.20;;;0.77;;
68256;SDS011;55069;51.568;4.656;2022-12-29T02:30:32;2.88;;;0.82;;
68256;SDS011;55069;51.568;4.656;2022-12-29T02:33:05;3.97;;;1.05;;
68256;SDS011;55069;51.568;4.656;2022-12-29T02:46:22;5.28;;;1.40;;
68256;SDS011;55069;51.568;4.656;2022-12-29T02:52:18;5.45;;;1.17;;
68256;SDS011;55069;51.568;4.656;2022-12-29T02:54:48;7.90;;;1.50;;
68256;SDS011;55069;51.568;4.656;2022-12-29T02:59:47;6.43;;;0.90;;
68256;SDS011;55069;51.568;4.656;2022-12-29T03:05:07;7.40;;;1.20;;
68256;SDS011;55069;51.568;4.656;2022-12-29T03:10:30;4.50;;;0.90;;
68256;SDS011;55069;51.568;4.656;2022-12-29T03:18:55;7.00;;;1.35;;
68256;SDS011;55069;51.568;4.656;2022-12-29T03:22:01;5.47;;;0.82;;
68256;SDS011;55069;51.568;4.656;2022-12-29T03:24:43;3.67;;;0.73;;
68256;SDS011;55069;51.568;4.656;2022-12-29T03:27:19;3.13;;;0.85;;
68256;SDS011;55069;51.568;4.656;2022-12-29T03:29:50;5.20;;;0.90;;
68256;SDS011;55069;51.568;4.656;2022-12-29T03:32:20;5.25;;;0.80;;
68256;SDS011;55069;51.568;4.656;2022-12-29T03:34:48;5.18;;;0.95;;
68256;SDS011;55069;51.568;4.656;2022-12-29T03:37:16;3.20;;;1.00;;
68256;SDS011;55069;51.568;4.656;2022-12-29T03:39:46;6.93;;;1.10;;
68256;SDS011;55069;51.568;4.656;2022-12-29T03:42:19;3.03;;;0.80;;
68256;SDS011;55069;51.568;4.656;2022-12-29T03:44:46;6.63;;;0.82;;
68256;SDS011;55069;51.568;4.656;2022-12-29T03:47:14;2.35;;;0.90;;
68256;SDS011;55069;51.568;4.656;2022-12-29T03:49:41;4.83;;;0.60;;
68256;SDS011;55069;51.568;4.656;2022-12-29T03:52:07;2.92;;;0.70;;
68256;SDS011;55069;51.568;4.656;2022-12-29T03:54:38;1.63;;;0.55;;
68256;SDS011;55069;51.568;4.656;2022-12-29T03:57:04;3.45;;;0.90;;
68256;SDS011;55069;51.568;4.656;2022-12-29T03:59:46;5.77;;;0.90;;
68256;SDS011;55069;51.568;4.656;2022-12-29T04:02:11;3.70;;;0.93;;
68256;SDS011;55069;51.568;4.656;2022-12-29T04:04:38;6.47;;;0.85;;
68256;SDS011;55069;51.568;4.656;2022-12-29T04:07:03;4.63;;;0.67;;
68256;SDS011;55069;51.568;4.656;2022-12-29T04:09:29;7.05;;;1.00;;
68256;SDS011;55069;51.568;4.656;2022-12-29T04:11:57;3.77;;;0.90;;
68256;SDS011;55069;51.568;4.656;2022-12-29T04:14:23;3.88;;;0.50;;
68256;SDS011;55069;51.568;4.656;2022-12-29T04:16:48;3.70;;;1.00;;
68256;SDS011;55069;51.568;4.656;2022-12-29T04:19:14;3.60;;;0.52;;
68256;SDS011;55069;51.568;4.656;2022-12-29T04:21:41;4.20;;;0.60;;
68256;SDS011;55069;51.568;4.656;2022-12-29T04:24:06;7.65;;;0.77;;
68256;SDS011;55069;51.568;4.656;2022-12-29T04:26:35;6.23;;;1.17;;
68256;SDS011;55069;51.568;4.656;2022-12-29T04:29:10;5.82;;;0.80;;
68256;SDS011;55069;51.568;4.656;2022-12-29T04:32:02;7.53;;;0.93;;
68256;SDS011;55069;51.568;4.656;2022-12-29T04:34:29;5.25;;;0.88;;
68256;SDS011;55069;51.568;4.656;2022-12-29T04:36:55;7.97;;;1.20;;
68256;SDS011;55069;51.568;4.656;2022-12-29T04:39:20;5.82;;;1.30;;
68256;SDS011;55069;51.568;4.656;2022-12-29T04:41:46;3.78;;;1.20;;
68256;SDS011;55069;51.568;4.656;2022-12-29T04:44:16;5.78;;;1.63;;
68256;SDS011;55069;51.568;4.656;2022-12-29T04:47:08;10.18;;;1.90;;
68256;SDS011;55069;51.568;4.656;2022-12-29T04:49:59;9.00;;;1.77;;
68256;SDS011;55069;51.568;4.656;2022-12-29T04:52:52;6.53;;;1.10;;
68256;SDS011;55069;51.568;4.656;2022-12-29T04:55:18;11.55;;;2.00;;
68256;SDS011;55069;51.568;4.656;2022-12-29T04:57:43;10.20;;;1.43;;
68256;SDS011;55069;51.568;4.656;2022-12-29T05:00:13;11.05;;;1.50;;
68256;SDS011;55069;51.568;4.656;2022-12-29T05:02:39;9.68;;;1.48;;
68256;SDS011;55069;51.568;4.656;2022-12-29T05:05:04;8.93;;;1.40;;
68256;SDS011;55069;51.568;4.656;2022-12-29T05:07:33;7.18;;;1.23;;
68256;SDS011;55069;51.568;4.656;2022-12-29T05:09:59;11.43;;;1.48;;
68256;SDS011;55069;51.568;4.656;2022-12-29T05:12:25;10.53;;;1.60;;
68256;SDS011;55069;51.568;4.656;2022-12-29T05:14:57;8.15;;;1.30;;
68256;SDS011;55069;51.568;4.656;2022-12-29T05:17:23;5.18;;;1.35;;
68256;SDS011;55069;51.568;4.656;2022-12-29T05:19:49;15.77;;;2.80;;
68256;SDS011;55069;51.568;4.656;2022-12-29T05:22:14;7.07;;;1.23;;
68256;SDS011;55069;51.568;4.656;2022-12-29T05:24:40;7.90;;;1.40;;
68256;SDS011;55069;51.568;4.656;2022-12-29T05:27:06;10.88;;;1.17;;
68256;SDS011;55069;51.568;4.656;2022-12-29T05:29:57;7.43;;;0.90;;
68256;SDS011;55069;51.568;4.656;2022-12-29T05:32:23;8.45;;;1.17;;
68256;SDS011;55069;51.568;4.656;2022-12-29T05:34:49;7.93;;;1.20;;
68256;SDS011;55069;51.568;4.656;2022-12-29T05:37:16;9.03;;;1.30;;
68256;SDS011;55069;51.568;4.656;2022-12-29T05:39:42;6.53;;;0.90;;
68256;SDS011;55069;51.568;4.656;2022-12-29T05:42:08;9.40;;;1.17;;
68256;SDS011;55069;51.568;4.656;2022-12-29T05:44:45;6.77;;;1.10;;
68256;SDS011;55069;51.568;4.656;2022-12-29T05:47:15;10.13;;;1.20;;
68256;SDS011;55069;51.568;4.656;2022-12-29T05:50:01;10.85;;;1.50;;
68256;SDS011;55069;51.568;4.656;2022-12-29T05:52:53;9.82;;;1.38;;
68256;SDS011;55069;51.568;4.656;2022-12-29T05:55:19;7.80;;;1.20;;
68256;SDS011;55069;51.568;4.656;2022-12-29T05:57:46;8.00;;;1.20;;
68256;SDS011;55069;51.568;4.656;2022-12-29T06:00:14;7.63;;;1.00;;
68256;SDS011;55069;51.568;4.656;2022-12-29T06:02:41;11.45;;;1.42;;
68256;SDS011;55069;51.568;4.656;2022-12-29T06:05:07;8.33;;;1.40;;
68256;SDS011;55069;51.568;4.656;2022-12-29T06:07:34;8.20;;;1.00;;
68256;SDS011;55069;51.568;4.656;2022-12-29T06:10:01;7.30;;;0.80;;
68256;SDS011;55069;51.568;4.656;2022-12-29T06:12:30;8.23;;;1.13;;
68256;SDS011;55069;51.568;4.656;2022-12-29T06:14:55;7.70;;;1.10;;
68256;SDS011;55069;51.568;4.656;2022-12-29T06:17:21;9.37;;;1.53;;
68256;SDS011;55069;51.568;4.656;2022-12-29T06:19:48;4.28;;;0.68;;
68256;SDS011;55069;51.568;4.656;2022-12-29T06:22:13;7.45;;;0.93;;
68256;SDS011;55069;51.568;4.656;2022-12-29T06:24:41;10.25;;;1.13;;
68256;SDS011;55069;51.568;4.656;2022-12-29T06:27:07;7.72;;;1.58;;
68256;SDS011;55069;51.568;4.656;2022-12-29T06:29:33;8.37;;;1.50;;
68256;SDS011;55069;51.568;4.656;2022-12-29T06:32:00;5.30;;;0.90;;
68256;SDS011;55069;51.568;4.656;2022-12-29T06:34:26;6.65;;;0.75;;
68256;SDS011;55069;51.568;4.656;2022-12-29T06:36:52;6.20;;;1.03;;
68256;SDS011;55069;51.568;4.656;2022-12-29T06:39:17;12.60;;;1.10;;
68256;SDS011;55069;51.568;4.656;2022-12-29T06:41:53;5.65;;;0.95;;
68256;SDS011;55069;51.568;4.656;2022-12-29T06:44:38;8.10;;;1.17;;
68256;SDS011;55069;51.568;4.656;2022-12-29T06:47:08;9.25;;;1.48;;
68256;SDS011;55069;51.568;4.656;2022-12-29T06:49:34;5.93;;;0.90;;
68256;SDS011;55069;51.568;4.656;2022-12-29T06:51:59;6.17;;;1.10;;
68256;SDS011;55069;51.568;4.656;2022-12-29T06:54:26;7.72;;;1.33;;
68256;SDS011;55069;51.568;4.656;2022-12-29T06:56:51;7.40;;;1.20;;
68256;SDS011;55069;51.568;4.656;2022-12-29T06:59:17;8.43;;;1.10;;
68256;SDS011;55069;51.568;4.656;2022-12-29T07:01:42;9.25;;;1.15;;
68256;SDS011;55069;51.568;4.656;2022-12-29T07:04:08;7.53;;;1.10;;
68256;SDS011;55069;51.568;4.656;2022-12-29T07:06:33;6.20;;;1.10;;
68256;SDS011;55069;51.568;4.656;2022-12-29T07:08:59;5.80;;;0.90;;
68256;SDS011;55069;51.568;4.656;2022-12-29T07:11:24;7.85;;;1.30;;
68256;SDS011;55069;51.568;4.656;2022-12-29T07:13:50;9.47;;;1.50;;
68256;SDS011;55069;51.568;4.656;2022-12-29T07:16:15;11.47;;;1.43;;
68256;SDS011;55069;51.568;4.656;2022-12-29T07:18:41;8.70;;;1.63;;
68256;SDS011;55069;51.568;4.656;2022-12-29T07:21:07;10.65;;;1.60;;
68256;SDS011;55069;51.568;4.656;2022-12-29T07:23:32;7.77;;;1.40;;
68256;SDS011;55069;51.568;4.656;2022-12-29T07:26:01;8.65;;;1.50;;
68256;SDS011;55069;51.568;4.656;2022-12-29T07:28:31;8.30;;;1.43;;
68256;SDS011;55069;51.568;4.656;2022-12-29T07:30:58;13.10;;;1.80;;
68256;SDS011;55069;51.568;4.656;2022-12-29T07:33:24;10.65;;;1.88;;
68256;SDS011;55069;51.568;4.656;2022-12-29T07:35:49;12.63;;;1.33;;
68256;SDS011;55069;51.568;4.656;2022-12-29T07:38:15;11.30;;;1.70;;
68256;SDS011;55069;51.568;4.656;2022-12-29T07:40:42;10.82;;;1.20;;
68256;SDS011;55069;51.568;4.656;2022-12-29T07:43:07;9.03;;;1.10;;
68256;SDS011;55069;51.568;4.656;2022-12-29T07:45:39;8.88;;;1.05;;
68256;SDS011;55069;51.568;4.656;2022-12-29T07:48:07;7.35;;;1.10;;
68256;SDS011;55069;51.568;4.656;2022-12-29T07:50:36;12.00;;;1.30;;
68256;SDS011;55069;51.568;4.656;2022-12-29T07:53:02;10.23;;;1.80;;
68256;SDS011;55069;51.568;4.656;2022-12-29T07:55:28;9.70;;;1.73;;
68256;SDS011;55069;51.568;4.656;2022-12-29T07:57:54;11.60;;;1.60;;
68256;SDS011;55069;51.568;4.656;2022-12-29T08:00:20;9.82;;;0.85;;
68256;SDS011;55069;51.568;4.656;2022-12-29T08:02:46;12.70;;;1.70;;
68256;SDS011;55069;51.568;4.656;2022-12-29T08:05:12;12.25;;;1.38;;
68256;SDS011;55069;51.568;4.656;2022-12-29T08:07:37;12.63;;;1.60;;
68256;SDS011;55069;51.568;4.656;2022-12-29T08:10:03;14.33;;;1.67;;
68256;SDS011;55069;51.568;4.656;2022-12-29T08:12:29;5.68;;;1.30;;
68256;SDS011;55069;51.568;4.656;2022-12-29T08:14:54;8.80;;;1.97;;
68256;SDS011;55069;51.568;4.656;2022-12-29T08:17:20;15.17;;;1.77;;
68256;SDS011;55069;51.568;4.656;2022-12-29T08:19:45;10.07;;;1.55;;
68256;SDS011;55069;51.568;4.656;2022-12-29T08:22:11;14.83;;;1.77;;
68256;SDS011;55069;51.568;4.656;2022-12-29T08:24:37;10.38;;;1.60;;
68256;SDS011;55069;51.568;4.656;2022-12-29T08:27:03;10.73;;;1.67;;
68256;SDS011;55069;51.568;4.656;2022-12-29T08:29:28;13.67;;;1.93;;
68256;SDS011;55069;51.568;4.656;2022-12-29T08:31:54;14.05;;;1.40;;
68256;SDS011;55069;51.568;4.656;2022-12-29T08:34:19;13.17;;;1.47;;
68256;SDS011;55069;51.568;4.656;2022-12-29T08:36:45;10.47;;;1.40;;
68256;SDS011;55069;51.568;4.656;2022-12-29T08:39:10;10.33;;;1.23;;
68256;SDS011;55069;51.568;4.656;2022-12-29T08:41:36;14.93;;;2.03;;
68256;SDS011;55069;51.568;4.656;2022-12-29T08:44:01;11.23;;;1.63;;
68256;SDS011;55069;51.568;4.656;2022-12-29T08:46:27;10.77;;;1.80;;
68256;SDS011;55069;51.568;4.656;2022-12-29T08:48:53;9.07;;;1.40;;
68256;SDS011;55069;51.568;4.656;2022-12-29T08:51:18;12.55;;;1.25;;
68256;SDS011;55069;51.568;4.656;2022-12-29T08:53:44;13.73;;;2.10;;
68256;SDS011;55069;51.568;4.656;2022-12-29T08:56:10;7.40;;;1.10;;
68256;SDS011;55069;51.568;4.656;2022-12-29T08:58:45;12.38;;;1.38;;
68256;SDS011;55069;51.568;4.656;2022-12-29T09:01:11;13.40;;;2.15;;
68256;SDS011;55069;51.568;4.656;2022-12-29T09:03:36;8.83;;;1.30;;
68256;SDS011;55069;51.568;4.656;2022-12-29T09:06:02;12.50;;;1.47;;
68256;SDS011;55069;51.568;4.656;2022-12-29T09:08:27;11.30;;;1.40;;
68256;SDS011;55069;51.568;4.656;2022-12-29T09:10:53;8.18;;;1.58;;
68256;SDS011;55069;51.568;4.656;2022-12-29T09:13:19;12.63;;;1.80;;
68256;SDS011;55069;51.568;4.656;2022-12-29T09:15:44;15.02;;;2.30;;
68256;SDS011;55069;51.568;4.656;2022-12-29T09:18:10;12.40;;;1.97;;
68256;SDS011;55069;51.568;4.656;2022-12-29T09:20:36;12.80;;;1.70;;
68256;SDS011;55069;51.568;4.656;2022-12-29T09:23:02;12.87;;;1.63;;
68256;SDS011;55069;51.568;4.656;2022-12-29T09:25:28;14.45;;;2.47;;
68256;SDS011;55069;51.568;4.656;2022-12-29T09:27:54;9.18;;;1.33;;
68256;SDS011;55069;51.568;4.656;2022-12-29T09:30:20;18.77;;;2.00;;
68256;SDS011;55069;51.568;4.656;2022-12-29T09:32:47;9.60;;;1.45;;
68256;SDS011;55069;51.568;4.656;2022-12-29T09:35:13;11.50;;;2.00;;
68256;SDS011;55069;51.568;4.656;2022-12-29T09:37:40;13.45;;;2.00;;
68256;SDS011;55069;51.568;4.656;2022-12-29T09:40:06;15.75;;;2.33;;
68256;SDS011;55069;51.568;4.656;2022-12-29T09:42:38;10.40;;;1.63;;
68256;SDS011;55069;51.568;4.656;2022-12-29T09:45:29;14.35;;;1.77;;
68256;SDS011;55069;51.568;4.656;2022-12-29T09:48:03;13.10;;;2.20;;
68256;SDS011;55069;51.568;4.656;2022-12-29T09:50:31;11.55;;;1.70;;
68256;SDS011;55069;51.568;4.656;2022-12-29T09:55:39;10.80;;;1.60;;
68256;SDS011;55069;51.568;4.656;2022-12-29T10:00:48;13.25;;;2.10;;
68256;SDS011;55069;51.568;4.656;2022-12-29T10:03:47;12.65;;;2.33;;
68256;SDS011;55069;51.568;4.656;2022-12-29T10:06:19;14.40;;;2.40;;
68256;SDS011;55069;51.568;4.656;2022-12-29T10:14:29;14.57;;;2.75;;
68256;SDS011;55069;51.568;4.656;2022-12-29T10:17:24;16.35;;;3.00;;
68256;SDS011;55069;51.568;4.656;2022-12-29T10:22:36;13.53;;;3.00;;
68256;SDS011;55069;51.568;4.656;2022-12-29T10:25:20;21.98;;;3.88;;
68256;SDS011;55069;51.568;4.656;2022-12-29T10:27:50;16.45;;;3.88;;
68256;SDS011;55069;51.568;4.656;2022-12-29T10:30:17;15.32;;;3.42;;
68256;SDS011;55069;51.568;4.656;2022-12-29T10:35:21;21.88;;;3.58;;
68256;SDS011;55069;51.568;4.656;2022-12-29T10:37:50;16.40;;;2.70;;
68256;SDS011;55069;51.568;4.656;2022-12-29T10:40:19;21.60;;;2.95;;
68256;SDS011;55069;51.568;4.656;2022-12-29T10:42:52;16.00;;;2.63;;
68256;SDS011;55069;51.568;4.656;2022-12-29T10:45:19;12.10;;;2.23;;
68256;SDS011;55069;51.568;4.656;2022-12-29T10:48:49;16.80;;;2.92;;
68256;SDS011;55069;51.568;4.656;2022-12-29T10:50:47;16.95;;;2.47;;
68256;SDS011;55069;51.568;4.656;2022-12-29T10:53:25;13.45;;;2.83;;
68256;SDS011;55069;51.568;4.656;2022-12-29T10:55:55;19.63;;;3.15;;
68256;SDS011;55069;51.568;4.656;2022-12-29T10:58:21;14.40;;;2.40;;
68256;SDS011;55069;51.568;4.656;2022-12-29T11:00:49;18.77;;;3.30;;
68256;SDS011;55069;51.568;4.656;2022-12-29T11:06:00;17.00;;;3.22;;
68256;SDS011;55069;51.568;4.656;2022-12-29T11:08:30;24.45;;;3.63;;
68256;SDS011;55069;51.568;4.656;2022-12-29T11:11:07;17.20;;;3.27;;
68256;SDS011;55069;51.568;4.656;2022-12-29T11:13:35;15.30;;;3.08;;
68256;SDS011;55069;51.568;4.656;2022-12-29T11:16:26;12.80;;;2.83;;
68256;SDS011;55069;51.568;4.656;2022-12-29T11:18:55;23.17;;;3.88;;
68256;SDS011;55069;51.568;4.656;2022-12-29T11:21:26;18.00;;;3.30;;
68256;SDS011;55069;51.568;4.656;2022-12-29T11:24:14;16.90;;;3.15;;
68256;SDS011;55069;51.568;4.656;2022-12-29T11:26:51;24.42;;;2.78;;
68256;SDS011;55069;51.568;4.656;2022-12-29T11:29:26;15.50;;;2.75;;
68256;SDS011;55069;51.568;4.656;2022-12-29T11:31:57;19.58;;;4.53;;
68256;SDS011;55069;51.568;4.656;2022-12-29T11:34:31;21.70;;;3.20;;
68256;SDS011;55069;51.568;4.656;2022-12-29T11:37:44;18.65;;;3.45;;
68256;SDS011;55069;51.568;4.656;2022-12-29T11:39:54;20.13;;;5.03;;
68256;SDS011;55069;51.568;4.656;2022-12-29T11:43:02;26.73;;;3.60;;
68256;SDS011;55069;51.568;4.656;2022-12-29T11:45:35;15.63;;;2.70;;
68256;SDS011;55069;51.568;4.656;2022-12-29T11:48:09;16.87;;;3.37;;
68256;SDS011;55069;51.568;4.656;2022-12-29T11:50:41;14.55;;;2.50;;
68256;SDS011;55069;51.568;4.656;2022-12-29T11:53:15;16.95;;;2.65;;
68256;SDS011;55069;51.568;4.656;2022-12-29T11:55:48;16.48;;;2.30;;
68256;SDS011;55069;51.568;4.656;2022-12-29T11:58:28;17.83;;;3.28;;
68256;SDS011;55069;51.568;4.656;2022-12-29T12:01:40;22.57;;;2.67;;
68256;SDS011;55069;51.568;4.656;2022-12-29T12:04:08;22.35;;;3.20;;
68256;SDS011;55069;51.568;4.656;2022-12-29T12:06:43;14.48;;;2.20;;
68256;SDS011;55069;51.568;4.656;2022-12-29T12:09:16;21.23;;;2.92;;
68256;SDS011;55069;51.568;4.656;2022-12-29T12:11:47;16.00;;;2.90;;
68256;SDS011;55069;51.568;4.656;2022-12-29T12:18:03;18.27;;;3.63;;
68256;SDS011;55069;51.568;4.656;2022-12-29T12:21:00;15.95;;;3.67;;
68256;SDS011;55069;51.568;4.656;2022-12-29T12:23:36;16.00;;;2.15;;
68256;SDS011;55069;51.568;4.656;2022-12-29T12:28:42;15.23;;;1.47;;
68256;SDS011;55069;51.568;4.656;2022-12-29T12:31:23;17.88;;;2.17;;
68256;SDS011;55069;51.568;4.656;2022-12-29T12:34:12;16.08;;;2.50;;
68256;SDS011;55069;51.568;4.656;2022-12-29T12:36:47;9.50;;;1.67;;
68256;SDS011;55069;51.568;4.656;2022-12-29T12:44:33;9.95;;;1.77;;
68256;SDS011;55069;51.568;4.656;2022-12-29T12:48:00;13.88;;;2.40;;
68256;SDS011;55069;51.568;4.656;2022-12-29T12:58:04;6.55;;;1.25;;
68256;SDS011;55069;51.568;4.656;2022-12-29T13:06:01;11.30;;;1.70;;
68256;SDS011;55069;51.568;4.656;2022-12-29T13:08:53;8.45;;;1.17;;
68256;SDS011;55069;51.568;4.656;2022-12-29T13:11:37;7.07;;;1.30;;
68256;SDS011;55069;51.568;4.656;2022-12-29T13:14:42;6.47;;;1.20;;
68256;SDS011;55069;51.568;4.656;2022-12-29T13:36:42;11.85;;;2.08;;
68256;SDS011;55069;51.568;4.656;2022-12-29T13:39:15;11.88;;;2.63;;
68256;SDS011;55069;51.568;4.656;2022-12-29T13:42:12;17.53;;;2.87;;
68256;SDS011;55069;51.568;4.656;2022-12-29T13:44:43;10.68;;;2.47;;
68256;SDS011;55069;51.568;4.656;2022-12-29T13:47:18;7.93;;;2.40;;
68256;SDS011;55069;51.568;4.656;2022-12-29T13:49:50;13.15;;;2.60;;
68256;SDS011;55069;51.568;4.656;2022-12-29T13:52:37;15.80;;;3.35;;
68256;SDS011;55069;51.568;4.656;2022-12-29T14:00:23;12.77;;;2.15;;
68256;SDS011;55069;51.568;4.656;2022-12-29T14:03:08;9.65;;;2.45;;
68256;SDS011;55069;51.568;4.656;2022-12-29T14:05:44;10.90;;;2.08;;
68256;SDS011;55069;51.568;4.656;2022-12-29T14:08:27;8.97;;;2.20;;
68256;SDS011;55069;51.568;4.656;2022-12-29T14:10:52;15.18;;;2.50;;
68256;SDS011;55069;51.568;4.656;2022-12-29T14:13:22;12.47;;;2.40;;
68256;SDS011;55069;51.568;4.656;2022-12-29T14:15:50;12.10;;;2.53;;
68256;SDS011;55069;51.568;4.656;2022-12-29T14:18:22;7.28;;;2.08;;
68256;SDS011;55069;51.568;4.656;2022-12-29T14:23:36;12.93;;;3.45;;
68256;SDS011;55069;51.568;4.656;2022-12-29T14:28:56;5.85;;;1.80;;
68256;SDS011;55069;51.568;4.656;2022-12-29T14:39:39;10.23;;;2.77;;
68256;SDS011;55069;51.568;4.656;2022-12-29T14:44:44;6.22;;;1.67;;
68256;SDS011;55069;51.568;4.656;2022-12-29T14:47:15;12.57;;;1.98;;
68256;SDS011;55069;51.568;4.656;2022-12-29T14:49:44;9.70;;;1.85;;
68256;SDS011;55069;51.568;4.656;2022-12-29T14:54:51;6.93;;;1.98;;
68256;SDS011;55069;51.568;4.656;2022-12-29T14:59:53;6.32;;;1.40;;
68256;SDS011;55069;51.568;4.656;2022-12-29T15:02:24;6.93;;;1.20;;
68256;SDS011;55069;51.568;4.656;2022-12-29T15:04:51;10.70;;;1.70;;
68256;SDS011;55069;51.568;4.656;2022-12-29T15:07:19;8.93;;;1.50;;
68256;SDS011;55069;51.568;4.656;2022-12-29T15:09:47;7.45;;;1.10;;
68256;SDS011;55069;51.568;4.656;2022-12-29T15:15:19;6.15;;;1.23;;
68256;SDS011;55069;51.568;4.656;2022-12-29T15:17:51;8.10;;;1.83;;
68256;SDS011;55069;51.568;4.656;2022-12-29T15:23:08;6.75;;;1.20;;
68256;SDS011;55069;51.568;4.656;2022-12-29T15:25:37;8.20;;;1.53;;
68256;SDS011;55069;51.568;4.656;2022-12-29T15:28:21;4.88;;;1.30;;
68256;SDS011;55069;51.568;4.656;2022-12-29T15:30:55;7.60;;;1.83;;
68256;SDS011;55069;51.568;4.656;2022-12-29T15:33:26;6.20;;;1.20;;
68256;SDS011;55069;51.568;4.656;2022-12-29T15:35:54;5.85;;;1.08;;
68256;SDS011;55069;51.568;4.656;2022-12-29T15:38:22;6.00;;;1.20;;
68256;SDS011;55069;51.568;4.656;2022-12-29T15:40:54;7.40;;;1.35;;
68256;SDS011;55069;51.568;4.656;2022-12-29T15:43:32;10.10;;;1.60;;
68256;SDS011;55069;51.568;4.656;2022-12-29T15:46:01;5.35;;;1.20;;
68256;SDS011;55069;51.568;4.656;2022-12-29T15:48:28;9.15;;;1.52;;
68256;SDS011;55069;51.568;4.656;2022-12-29T15:50:54;4.27;;;1.30;;
68256;SDS011;55069;51.568;4.656;2022-12-29T15:53:23;6.20;;;1.80;;
68256;SDS011;55069;51.568;4.656;2022-12-29T15:55:54;10.95;;;1.83;;
68256;SDS011;55069;51.568;4.656;2022-12-29T15:58:24;7.93;;;1.97;;
68256;SDS011;55069;51.568;4.656;2022-12-29T16:00:58;7.68;;;1.42;;
68256;SDS011;55069;51.568;4.656;2022-12-29T16:03:25;6.57;;;1.50;;
68256;SDS011;55069;51.568;4.656;2022-12-29T16:05:55;6.57;;;1.50;;
68256;SDS011;55069;51.568;4.656;2022-12-29T16:08:34;7.43;;;2.00;;
68256;SDS011;55069;51.568;4.656;2022-12-29T16:11:20;10.03;;;1.77;;
68256;SDS011;55069;51.568;4.656;2022-12-29T16:13:47;7.90;;;1.73;;
68256;SDS011;55069;51.568;4.656;2022-12-29T16:16:15;9.27;;;2.30;;
68256;SDS011;55069;51.568;4.656;2022-12-29T16:18:44;16.08;;;1.67;;
68256;SDS011;55069;51.568;4.656;2022-12-29T16:21:16;8.47;;;2.40;;
68256;SDS011;55069;51.568;4.656;2022-12-29T16:24:02;7.25;;;1.40;;
68256;SDS011;55069;51.568;4.656;2022-12-29T16:27:07;14.02;;;3.00;;
68256;SDS011;55069;51.568;4.656;2022-12-29T16:29:33;7.78;;;1.63;;
68256;SDS011;55069;51.568;4.656;2022-12-29T16:32:00;9.20;;;2.08;;
68256;SDS011;55069;51.568;4.656;2022-12-29T16:34:29;8.33;;;1.80;;
68256;SDS011;55069;51.568;4.656;2022-12-29T16:36:55;13.10;;;2.10;;
68256;SDS011;55069;51.568;4.656;2022-12-29T16:39:27;15.85;;;2.58;;
68256;SDS011;55069;51.568;4.656;2022-12-29T16:50:35;11.02;;;1.77;;
68256;SDS011;55069;51.568;4.656;2022-12-29T16:53:02;7.40;;;1.60;;
68256;SDS011;55069;51.568;4.656;2022-12-29T16:55:30;13.68;;;2.33;;
68256;SDS011;55069;51.568;4.656;2022-12-29T16:57:56;9.03;;;1.70;;
68256;SDS011;55069;51.568;4.656;2022-12-29T17:00:24;13.65;;;3.20;;
68256;SDS011;55069;51.568;4.656;2022-12-29T17:02:56;11.70;;;3.15;;
68256;SDS011;55069;51.568;4.656;2022-12-29T17:05:24;12.13;;;1.80;;
68256;SDS011;55069;51.568;4.656;2022-12-29T17:07:49;13.57;;;2.47;;
68256;SDS011;55069;51.568;4.656;2022-12-29T17:10:16;11.30;;;2.08;;
68256;SDS011;55069;51.568;4.656;2022-12-29T17:12:42;13.60;;;1.60;;
68256;SDS011;55069;51.568;4.656;2022-12-29T17:17:53;11.50;;;2.10;;
68256;SDS011;55069;51.568;4.656;2022-12-29T17:20:24;16.25;;;1.65;;
68256;SDS011;55069;51.568;4.656;2022-12-29T17:22:55;13.05;;;1.90;;
68256;SDS011;55069;51.568;4.656;2022-12-29T17:25:30;13.73;;;1.67;;
68256;SDS011;55069;51.568;4.656;2022-12-29T17:28:02;10.50;;;2.03;;
68256;SDS011;55069;51.568;4.656;2022-12-29T17:30:31;12.25;;;2.78;;
68256;SDS011;55069;51.568;4.656;2022-12-29T17:33:00;13.25;;;2.05;;
68256;SDS011;55069;51.568;4.656;2022-12-29T17:35:29;17.33;;;2.08;;